Grande Francia — ICBC — position and weather

sailwx.info

Track history (hours):
 
Tides and Currents Weather Stations Pressure Air Temp Water Temp Dewpoint Dewpoint Depression Visibility Wind Speed Wind Dir Waves Ship Positions

Grande Francia

Last reported at 2018-May-23 03:00 UTC. Time now 2018-May-23 03:20 UTC.
Position N 50°08' W 002°11'.

Length 214 m; draft 9.7 m.

Type: Ship (hazmat cat A). MMSI: 247078800.

Date/timePositionNaut miles runAvg speedWind from/ knotsBaromVisibWave heightAir tempDewpointWater temp
2018-May-23 03:00N 50°08' W 002°11'714.9
2018-May-23 02:30N 50°09' W 002°00'714.6
2018-May-23 02:01N 50°11' W 001°49'714.5
2018-May-23 01:31N 50°13' W 001°38'713.2
2018-May-23 01:01N 50°09' W 001°30'816.1
2018-May-23 00:30N 50°02' W 001°25'815.6
2018-May-23 00:00N 49°55' W 001°18'816.0
2018-May-22 23:31N 49°51' W 001°07'816.6
2018-May-22 23:00N 49°48' W 000°56'917.2
2018-May-22 22:30N 49°43' W 000°44'917.8
2018-May-22 22:00N 49°39' W 000°33'917.6
2018-May-22 21:31N 49°35' W 000°21'917.3
2018-May-22 21:01N 49°32' W 000°08'714.2
2018-May-22 20:31N 49°30' E 000°02'5 9.2
2018-May-22 20:01N 49°28' E 000°09'1 1.8
2018-May-22 19:31N 49°29' E 000°10'0 0.7
2018-May-22 19:01N 49°29' E 000°11'0 0.3
2018-May-22 18:28N 49°29' E 000°11'0 0.1
2018-May-22 17:58N 49°29' E 000°11'0 0.0
2018-May-22 17:28N 49°29' E 000°11'0 0.0
2018-May-22 16:58N 49°29' E 000°11'0 0.0
2018-May-22 16:28N 49°29' E 000°11'0 0.0
2018-May-22 15:58N 49°29' E 000°11'0 0.0
2018-May-22 15:28N 49°29' E 000°11'0 0.0
2018-May-22 14:58N 49°29' E 000°11'0 0.0
2018-May-22 14:28N 49°29' E 000°11'0 0.0
2018-May-22 13:58N 49°29' E 000°11'0 0.0
2018-May-22 13:28N 49°29' E 000°11'0 0.0
2018-May-22 12:58N 49°29' E 000°11'0 0.0
2018-May-22 12:28N 49°29' E 000°11'0 0.0
2018-May-22 11:58N 49°29' E 000°11'0 0.0
2018-May-22 11:28N 49°29' E 000°11'0 0.0
2018-May-22 10:58N 49°29' E 000°11'0 0.0
2018-May-22 10:28N 49°29' E 000°11'0 0.0
2018-May-22 09:58N 49°29' E 000°11'0 0.0
2018-May-22 09:28N 49°29' E 000°11'0 0.0
2018-May-22 08:58N 49°29' E 000°11'0 0.0
2018-May-22 08:28N 49°29' E 000°11'0 0.0
2018-May-22 07:58N 49°29' E 000°11'0 0.0
2018-May-22 07:28N 49°29' E 000°11'0 0.0
2018-May-22 06:58N 49°29' E 000°11'0 0.0
2018-May-22 06:28N 49°29' E 000°11'0 0.0
2018-May-22 05:58N 49°29' E 000°11'0 0.0
2018-May-22 05:28N 49°29' E 000°11'0 0.0
2018-May-22 04:58N 49°29' E 000°11'0 0.0
2018-May-22 04:28N 49°29' E 000°11'0 0.0
2018-May-22 03:58N 49°29' E 000°11'0 0.0
2018-May-22 03:28N 49°29' E 000°11'0 0.0
2018-May-22 02:58N 49°29' E 000°11'0 0.0
2018-May-22 02:28N 49°29' E 000°11'0 0.0
2018-May-22 01:58N 49°29' E 000°11'0 0.0
2018-May-22 01:28N 49°29' E 000°11'0 0.0
2018-May-22 00:58N 49°29' E 000°11'0 0.0
2018-May-22 00:28N 49°29' E 000°11'0 0.0
2018-May-22 00:01N 49°29' E 000°11'0 0.8
2018-May-21 23:30N 49°29' E 000°10'0 0.1
2018-May-21 23:01N 49°29' E 000°10'1 1.1
2018-May-21 22:31N 49°28' E 000°10'3 5.8
2018-May-21 22:00N 49°29' E 000°05'713.2
2018-May-21 21:31N 49°31' W 000°05'5 9.2
2018-May-21 21:01N 49°32' W 000°11'510.3
2018-May-21 20:31N 49°33' W 000°19'5 9.7
2018-May-21 20:00N 49°35' W 000°26'4 7.9
2018-May-21 19:30N 49°39' W 000°28'510.4
2018-May-21 19:00N 49°44' W 000°27'713.9
2018-May-21 18:30N 49°51' W 000°27'815.2
2018-May-21 18:00N 49°58' W 000°26'815.3
2018-May-21 17:30N 50°06' W 000°26'816.2
2018-May-21 17:00N 50°14' W 000°26'816.8
2018-May-21 16:31N 50°22' W 000°23'917.2
2018-May-21 16:01N 50°26' W 000°11'816.9
2018-May-21 15:31N 50°28' E 000°02'816.5
2018-May-21 15:00N 50°31' E 000°15'816.2
2018-May-21 14:31N 50°33' E 000°27'815.8
2018-May-21 14:01N 50°37' E 000°38'816.3
2018-May-21 13:31N 50°43' E 000°47'816.8
2018-May-21 13:00N 50°48' E 000°57'917.5
2018-May-21 12:29N 50°54' E 001°08'918.3
2018-May-21 12:01N 50°60' E 001°19'1019.3
2018-May-21 11:31N 51°06' E 001°31'1019.6
2018-May-21 11:01N 51°12' E 001°43'1019.1
2018-May-21 10:30N 51°19' E 001°52'816.6
2018-May-21 10:01N 51°25' E 002°02'917.2
2018-May-21 09:31N 51°21' E 002°14'816.8
2018-May-21 09:00N 51°22' E 002°27'816.7
2018-May-21 08:31N 51°22' E 002°41'714.1
2018-May-21 08:01N 51°22' E 002°52'815.5
2018-May-21 07:30N 51°24' E 003°04'815.5
2018-May-21 06:58N 51°25' E 003°18'715.4
2018-May-21 06:30N 51°25' E 003°29'510.1
2018-May-21 06:00N 51°26' E 003°37'4 8.3
2018-May-21 05:30N 51°24' E 003°43'510.2
2018-May-21 05:00N 51°21' E 003°49'4 8.9
2018-May-21 04:30N 51°22' E 003°56'5 9.0
2018-May-21 04:00N 51°26' E 003°59'4 8.8
2018-May-21 03:31N 51°23' E 004°03'4 8.5
2018-May-21 03:00N 51°23' E 004°10'4 7.2
2018-May-21 02:31N 51°21' E 004°15'4 7.1
2018-May-21 02:01N 51°18' E 004°16'1 2.6
2018-May-21 01:31N 51°17' E 004°15'0 0.0
2018-May-21 01:01N 51°17' E 004°15'0 0.3
2018-May-21 00:28N 51°17' E 004°15'1 1.8
2018-May-20 23:58N 51°17' E 004°13'0 0.0
2018-May-20 23:28N 51°17' E 004°13'0 0.0
2018-May-20 22:58N 51°17' E 004°13'0 0.0
2018-May-20 22:28N 51°17' E 004°13'0 0.0
2018-May-20 21:55N 51°17' E 004°13'0 0.0
2018-May-20 21:28N 51°17' E 004°13'0 0.0
2018-May-20 20:58N 51°17' E 004°13'0 0.0
2018-May-20 20:28N 51°17' E 004°13'0 0.0
2018-May-20 19:58N 51°17' E 004°13'0 0.0
2018-May-20 19:28N 51°17' E 004°13'0 0.0
2018-May-20 18:58N 51°17' E 004°13'0 0.0
2018-May-20 18:28N 51°17' E 004°13'0 0.0
2018-May-20 17:55N 51°17' E 004°13'0 0.0
2018-May-20 17:28N 51°17' E 004°13'0 0.0
2018-May-20 16:58N 51°17' E 004°13'0 0.0
2018-May-20 16:28N 51°17' E 004°13'0 0.0
2018-May-20 15:58N 51°17' E 004°13'0 0.0
2018-May-20 15:29N 51°17' E 004°13'0 0.0
2018-May-20 14:58N 51°17' E 004°13'0 0.0
2018-May-20 14:28N 51°17' E 004°13'0 0.0
2018-May-20 13:58N 51°17' E 004°13'0 0.0
2018-May-20 13:29N 51°17' E 004°13'0 0.0
2018-May-20 12:58N 51°17' E 004°13'0 0.0
2018-May-20 12:28N 51°17' E 004°13'0 0.0
2018-May-20 11:58N 51°17' E 004°13'0 0.0
2018-May-20 11:28N 51°17' E 004°13'0 0.0
2018-May-20 10:59N 51°17' E 004°13'0 0.0
2018-May-20 10:28N 51°17' E 004°13'0 0.0
2018-May-20 09:58N 51°17' E 004°13'0 0.0
2018-May-20 09:28N 51°17' E 004°13'0 0.0
2018-May-20 08:58N 51°17' E 004°13'0 0.0
2018-May-20 08:25N 51°17' E 004°13'0 0.0
2018-May-20 07:58N 51°17' E 004°13'0 0.0
2018-May-20 07:28N 51°17' E 004°13'0 0.0
2018-May-20 06:58N 51°17' E 004°13'0 0.0
2018-May-20 06:28N 51°17' E 004°13'0 0.0
2018-May-20 05:58N 51°17' E 004°13'0 0.0
2018-May-20 05:30N 51°17' E 004°13'0 0.0
2018-May-20 05:00N 51°17' E 004°13'0 0.0
2018-May-20 04:30N 51°17' E 004°13'0 0.0
2018-May-20 04:00N 51°17' E 004°13'0 0.0
2018-May-20 03:27N 51°17' E 004°13'0 0.0
2018-May-20 03:00N 51°17' E 004°13'0 0.0
2018-May-20 02:30N 51°17' E 004°13'0 0.0
2018-May-20 02:00N 51°17' E 004°13'0 0.0
2018-May-20 01:30N 51°17' E 004°13'0 0.0
2018-May-20 01:00N 51°17' E 004°13'0 0.0
2018-May-20 00:27N 51°17' E 004°13'0 0.0
2018-May-20 00:00N 51°17' E 004°13'0 0.0
2018-May-19 23:30N 51°17' E 004°13'0 0.0
2018-May-19 23:00N 51°17' E 004°13'0 0.0
2018-May-19 22:30N 51°17' E 004°13'0 0.0
2018-May-19 22:00N 51°17' E 004°13'0 0.0
2018-May-19 21:27N 51°17' E 004°13'0 0.0
2018-May-19 21:00N 51°17' E 004°13'0 0.0
2018-May-19 20:30N 51°17' E 004°13'0 0.0
2018-May-19 20:00N 51°17' E 004°13'0 0.0
2018-May-19 19:30N 51°17' E 004°13'0 0.0
2018-May-19 19:00N 51°17' E 004°13'0 0.0
2018-May-19 18:27N 51°17' E 004°13'0 0.0
2018-May-19 18:00N 51°17' E 004°13'0 0.0
2018-May-19 17:30N 51°17' E 004°13'0 0.0
2018-May-19 17:00N 51°17' E 004°13'0 0.0
2018-May-19 16:30N 51°17' E 004°13'0 0.0
2018-May-19 16:00N 51°17' E 004°13'0 0.0
2018-May-19 15:30N 51°17' E 004°13'0 0.0
2018-May-19 15:00N 51°17' E 004°13'0 0.0
2018-May-19 14:30N 51°17' E 004°13'0 0.0
2018-May-19 14:00N 51°17' E 004°13'0 0.0
2018-May-19 13:30N 51°17' E 004°13'0 0.0
2018-May-19 13:00N 51°17' E 004°13'0 0.0
2018-May-19 12:30N 51°17' E 004°13'0 0.0
2018-May-19 11:57N 51°17' E 004°13'0 0.0
2018-May-19 11:30N 51°17' E 004°13'0 0.0
2018-May-19 11:00N 51°17' E 004°13'0 0.0
2018-May-19 10:27N 51°17' E 004°13'0 0.0
2018-May-19 10:00N 51°17' E 004°13'0 0.0
2018-May-19 09:30N 51°17' E 004°13'0 0.0
2018-May-19 09:00N 51°17' E 004°13'0 0.0
2018-May-19 08:30N 51°17' E 004°13'0 0.0
2018-May-19 08:00N 51°17' E 004°13'0 0.0
2018-May-19 07:30N 51°17' E 004°13'0 0.0
2018-May-19 07:00N 51°17' E 004°13'0 0.0
2018-May-19 06:30N 51°17' E 004°13'0 0.0
2018-May-19 06:00N 51°17' E 004°13'0 0.0
2018-May-19 05:30N 51°17' E 004°13'0 0.0
2018-May-19 05:00N 51°17' E 004°13'0 0.0
2018-May-19 04:30N 51°17' E 004°13'0 0.0
2018-May-19 04:00N 51°17' E 004°13'0 0.0
2018-May-19 03:30N 51°17' E 004°13'0 0.0
2018-May-19 03:00N 51°17' E 004°13'0 0.0
2018-May-19 02:30N 51°17' E 004°13'0 0.0
2018-May-19 02:00N 51°17' E 004°13'0 0.0
2018-May-19 01:30N 51°17' E 004°13'0 0.0
2018-May-19 01:00N 51°17' E 004°13'0 0.0
2018-May-19 00:30N 51°17' E 004°13'0 0.0
2018-May-19 00:00N 51°17' E 004°13'0 0.0
2018-May-18 23:30N 51°17' E 004°13'0 0.0
2018-May-18 23:00N 51°17' E 004°13'0 0.0
2018-May-18 22:30N 51°17' E 004°13'0 0.0
2018-May-18 22:00N 51°17' E 004°13'0 0.0
2018-May-18 21:30N 51°17' E 004°13'0 0.0
2018-May-18 21:00N 51°17' E 004°13'0 0.0
2018-May-18 20:30N 51°17' E 004°13'0 0.0
2018-May-18 19:57N 51°17' E 004°13'0 0.0
2018-May-18 19:30N 51°17' E 004°13'0 0.0
2018-May-18 19:00N 51°17' E 004°13'0 0.0
2018-May-18 18:30N 51°17' E 004°13'0 0.0
2018-May-18 18:00N 51°17' E 004°13'0 0.0
2018-May-18 17:30N 51°17' E 004°13'0 0.0
2018-May-18 17:00N 51°17' E 004°13'0 0.0
2018-May-18 16:30N 51°17' E 004°13'0 0.0
2018-May-18 16:00N 51°17' E 004°13'0 0.0
2018-May-18 15:30N 51°17' E 004°13'0 0.0
2018-May-18 15:00N 51°17' E 004°13'0 0.0
2018-May-18 14:27N 51°17' E 004°13'0 0.0
2018-May-18 13:57N 51°17' E 004°13'0 0.0
2018-May-18 13:30N 51°17' E 004°13'0 0.0
2018-May-18 13:00N 51°17' E 004°13'0 0.0
2018-May-18 12:30N 51°17' E 004°13'0 0.0
2018-May-18 12:00N 51°17' E 004°13'0 0.0
2018-May-18 11:30N 51°17' E 004°13'0 0.0
2018-May-18 11:00N 51°17' E 004°13'0 0.0
2018-May-18 10:30N 51°17' E 004°13'0 0.0
2018-May-18 10:00N 51°17' E 004°13'0 0.0
2018-May-18 09:30N 51°17' E 004°13'0 0.0
2018-May-18 09:00N 51°17' E 004°13'0 0.0
2018-May-18 08:30N 51°17' E 004°13'0 0.0
2018-May-18 08:00N 51°17' E 004°13'0 0.0
2018-May-18 07:30N 51°17' E 004°13'0 0.0
2018-May-18 07:00N 51°17' E 004°13'0 0.0
2018-May-18 06:30N 51°17' E 004°13'0 0.0
2018-May-18 06:00N 51°17' E 004°13'0 0.0
2018-May-18 05:30N 51°17' E 004°13'0 0.0
2018-May-18 05:00N 51°17' E 004°13'0 0.0
2018-May-18 04:30N 51°17' E 004°13'0 0.0
2018-May-18 04:00N 51°17' E 004°13'0 0.0
2018-May-18 03:30N 51°17' E 004°13'0 0.0
2018-May-18 03:00N 51°17' E 004°13'0 0.0
2018-May-18 02:30N 51°17' E 004°13'0 0.0
2018-May-18 02:00N 51°17' E 004°13'0 0.0
2018-May-18 01:30N 51°17' E 004°13'0 0.0
2018-May-18 01:00N 51°17' E 004°13'0 0.0
2018-May-18 00:30N 51°17' E 004°13'0 0.0
2018-May-18 00:00N 51°17' E 004°13'0 0.0
2018-May-17 23:27N 51°17' E 004°13'0 0.0
2018-May-17 23:00N 51°17' E 004°13'0 0.0
2018-May-17 22:30N 51°17' E 004°13'0 0.0
2018-May-17 22:00N 51°17' E 004°13'0 0.0
2018-May-17 21:27N 51°17' E 004°13'0 0.0
2018-May-17 21:00N 51°17' E 004°13'0 0.0
2018-May-17 20:30N 51°17' E 004°13'0 0.0
2018-May-17 20:00N 51°17' E 004°13'0 0.0
2018-May-17 19:30N 51°17' E 004°13'0 0.0
2018-May-17 19:00N 51°17' E 004°13'0 0.0
2018-May-17 18:30N 51°17' E 004°13'0 0.0
2018-May-17 18:00N 51°17' E 004°13'0 0.0
2018-May-17 17:30N 51°17' E 004°13'0 0.0
2018-May-17 17:00N 51°17' E 004°13'0 0.0
2018-May-17 16:30N 51°17' E 004°13'0 0.0
2018-May-17 16:00N 51°17' E 004°13'0 0.0
2018-May-17 15:30N 51°17' E 004°13'0 0.0
2018-May-17 15:00N 51°17' E 004°13'0 0.0
2018-May-17 14:27N 51°17' E 004°13'0 0.0
2018-May-17 14:00N 51°17' E 004°13'0 0.0
2018-May-17 13:30N 51°17' E 004°13'0 0.0
2018-May-17 13:00N 51°17' E 004°13'0 0.0
2018-May-17 12:30N 51°17' E 004°13'0 0.0
2018-May-17 12:00N 51°17' E 004°13'0 0.0
2018-May-17 11:30N 51°17' E 004°13'0 0.0
2018-May-17 10:57N 51°17' E 004°13'0 0.0
2018-May-17 10:30N 51°17' E 004°13'0 0.0
2018-May-17 09:51N 51°17' E 004°13'0 0.0
2018-May-17 09:30N 51°17' E 004°13'0 0.0
2018-May-17 09:00N 51°17' E 004°13'0 0.0
2018-May-17 08:18N 51°17' E 004°13'0 0.0
2018-May-17 08:00N 51°17' E 004°13'0 0.0
2018-May-17 07:30N 51°17' E 004°13'0 0.0
2018-May-17 07:00N 51°17' E 004°13'0 0.0
2018-May-17 06:30N 51°17' E 004°13'0 0.0
2018-May-17 06:00N 51°17' E 004°13'0 0.1
2018-May-17 05:31N 51°17' E 004°13'2 4.3
2018-May-17 05:01N 51°16' E 004°16'0 0.3
2018-May-17 04:30N 51°16' E 004°17'0 0.6
2018-May-17 04:01N 51°16' E 004°17'2 3.8
2018-May-17 03:30N 51°18' E 004°18'4 7.6
2018-May-17 03:00N 51°21' E 004°15'4 8.5
2018-May-17 02:30N 51°23' E 004°09'510.7
2018-May-17 02:00N 51°25' E 004°02'611.9
2018-May-17 01:31N 51°22' E 003°54'713.3
2018-May-17 01:01N 51°23' E 003°44'510.9
2018-May-17 00:31N 51°26' E 003°36'4 8.5
2018-May-17 00:01N 51°25' E 003°30'714.0
2018-May-16 23:31N 51°24' E 003°19'713.1
2018-May-16 23:01N 51°24' E 003°08'612.7
2018-May-16 22:30N 51°25' E 002°58'713.3
2018-May-16 22:00N 51°25' E 002°47'510.4
2018-May-16 21:31N 51°22' E 002°40'4 7.2
2018-May-16 20:59N 51°22' E 002°34'4 8.0
2018-May-16 20:30N 51°26' E 002°32'3 4.8
2018-May-16 19:56N 51°27' E 002°37'0 0.1
2018-May-16 19:29N 51°27' E 002°37'0 0.1
2018-May-16 18:58N 51°26' E 002°37'0 0.0
2018-May-16 18:28N 51°26' E 002°37'0 0.1
2018-May-16 17:52N 51°26' E 002°37'0 0.1
2018-May-16 17:20N 51°27' E 002°37'0 0.2
2018-May-16 16:56N 51°26' E 002°37'0 0.1
2018-May-16 16:29N 51°26' E 002°37'0 0.0
2018-May-16 15:56N 51°26' E 002°37'0 0.0
2018-May-16 15:25N 51°26' E 002°37'0 0.0
2018-May-16 14:55N 51°26' E 002°37'0 0.0
2018-May-16 14:26N 51°26' E 002°37'0 0.0
2018-May-16 13:58N 51°26' E 002°37'0 0.0
2018-May-16 13:28N 51°26' E 002°37'0 0.0
2018-May-16 12:58N 51°26' E 002°37'0 0.0
2018-May-16 12:28N 51°26' E 002°37'0 0.0
2018-May-16 11:58N 51°26' E 002°37'0 0.1
2018-May-16 11:26N 51°26' E 002°37'0 0.0
2018-May-16 10:55N 51°26' E 002°37'0 0.0
2018-May-16 10:28N 51°26' E 002°37'0 0.1
2018-May-16 09:56N 51°26' E 002°37'0 0.0
2018-May-16 09:28N 51°26' E 002°37'0 0.0
2018-May-16 08:52N 51°26' E 002°37'0 0.0
2018-May-16 08:16N 51°26' E 002°37'0 0.0
2018-May-16 07:59N 51°26' E 002°37'0 0.0
2018-May-16 07:29N 51°26' E 002°37'0 0.0
2018-May-16 06:58N 51°26' E 002°37'0 0.0
2018-May-16 06:22N 51°26' E 002°37'0 0.1
2018-May-16 05:55N 51°26' E 002°37'0 0.1
2018-May-16 05:25N 51°27' E 002°37'0 0.2
2018-May-16 04:58N 51°26' E 002°37'0 0.1
2018-May-16 04:28N 51°26' E 002°37'0 0.0
2018-May-16 03:58N 51°27' E 002°37'0 0.1
2018-May-16 03:29N 51°27' E 002°37'0 0.2
2018-May-16 02:55N 51°27' E 002°37'0 0.1
2018-May-16 02:19N 51°27' E 002°37'0 0.0
2018-May-16 01:58N 51°27' E 002°37'0 0.0
2018-May-16 01:28N 51°27' E 002°37'0 0.0
2018-May-16 00:46N 51°27' E 002°37'0 0.0
2018-May-16 00:28N 51°27' E 002°37'0 0.2
2018-May-15 23:58N 51°27' E 002°37'0 0.1
2018-May-15 23:29N 51°27' E 002°37'0 0.1
2018-May-15 22:58N 51°26' E 002°37'0 0.0
2018-May-15 22:28N 51°27' E 002°37'0 0.1
2018-May-15 21:59N 51°27' E 002°37'0 0.0
2018-May-15 21:28N 51°27' E 002°37'0 0.0
2018-May-15 20:58N 51°27' E 002°37'0 0.0
2018-May-15 20:28N 51°27' E 002°37'0 0.0
2018-May-15 19:55N 51°27' E 002°37'0 0.0
2018-May-15 19:28N 51°27' E 002°37'0 0.0
2018-May-15 18:58N 51°27' E 002°37'0 0.0
2018-May-15 18:28N 51°27' E 002°37'0 0.0
2018-May-15 17:58N 51°27' E 002°37'0 0.1
2018-May-15 17:28N 51°27' E 002°37'0 0.0
2018-May-15 16:58N 51°27' E 002°37'0 0.1
2018-May-15 16:25N 51°27' E 002°37'0 0.0
2018-May-15 15:58N 51°27' E 002°37'0 0.2
2018-May-15 15:28N 51°27' E 002°37'1 2.7
2018-May-15 15:00N 51°26' E 002°35'510.1
2018-May-15 14:30N 51°22' E 002°30'816.6
2018-May-15 14:01N 51°18' E 002°18'917.6
2018-May-15 13:30N 51°13' E 002°07'917.8
2018-May-15 13:00N 51°09' E 001°54'917.6
2018-May-15 12:30N 51°04' E 001°43'917.1
2018-May-15 12:01N 50°59' E 001°33'916.8
2018-May-15 11:28N 50°51' E 001°25'918.7
2018-May-15 11:00N 50°43' E 001°22'917.5
2018-May-15 10:30N 50°37' E 001°11'917.0
2018-May-15 10:00N 50°31' E 001°01'917.2
2018-May-15 09:27N 50°27' E 000°47'817.8
2018-May-15 09:01N 50°25' E 000°35'918.4
2018-May-15 08:30N 50°22' E 000°22'918.6
2018-May-15 08:00N 50°20' E 000°07'918.3
2018-May-15 07:31N 50°19' W 000°07'918.2
2018-May-15 07:01N 50°16' W 000°20'918.4
2018-May-15 06:31N 50°14' W 000°34'918.1
2018-May-15 06:01N 50°12' W 000°48'917.9
2018-May-15 05:30N 50°10' W 001°02'917.2
2018-May-15 05:00N 50°07' W 001°15'816.4
2018-May-15 04:31N 50°05' W 001°27'815.5
2018-May-15 04:01N 50°03' W 001°38'714.6
2018-May-15 03:31N 50°01' W 001°49'713.7
2018-May-15 03:01N 49°59' W 001°60'713.2
2018-May-15 02:31N 49°57' W 002°09'613.0
2018-May-15 02:01N 49°55' W 002°19'713.0
2018-May-15 01:31N 49°53' W 002°29'713.1
2018-May-15 01:01N 49°51' W 002°38'713.4
2018-May-15 00:30N 49°49' W 002°48'713.6
2018-May-15 00:01N 49°46' W 002°58'714.2
2018-May-14 23:30N 49°43' W 003°08'714.4
2018-May-14 23:01N 49°39' W 003°17'714.8
2018-May-14 22:30N 49°36' W 003°28'714.8
2018-May-14 22:00N 49°33' W 003°38'714.8
2018-May-14 21:31N 49°29' W 003°48'815.1
2018-May-14 21:01N 49°26' W 003°58'815.2
2018-May-14 20:31N 49°22' W 004°08'815.5
2018-May-14 19:58N 49°17' W 004°19'715.4
2018-May-14 19:30N 49°14' W 004°28'815.7
2018-May-14 19:01N 49°10' W 004°39'815.7
2018-May-14 18:30N 49°06' W 004°49'816.0
2018-May-14 18:00N 49°01' W 004°59'816.5
2018-May-14 17:30N 48°57' W 005°10'816.9
2018-May-14 17:00N 48°53' W 005°21'917.3
2018-May-14 16:31N 48°48' W 005°32'916.9
2018-May-14 15:58N 48°41' W 005°41'817.2
2018-May-14 15:30N 48°34' W 005°46'917.3
2018-May-14 14:58N 48°26' W 005°53'1717.3
2018-May-14 13:59N 48°11' W 006°05'1717.3
2018-May-14 12:59N 47°56' W 006°17'  
Track history (hours):
 
Tides and Currents Weather Stations Pressure Air Temp Water Temp Dewpoint Dewpoint Depression Visibility Wind Speed Wind Dir Waves Ship Positions

Grande Francia

Last reported at 2018-May-23 03:00 UTC. Time now 2018-May-23 03:20 UTC.
Position N 50°08' W 002°11'.

Length 214 m; draft 9.7 m.

Type: Ship (hazmat cat A). MMSI: 247078800.

Date/timePositionNaut miles runAvg speedWind from/ knotsBaromVisibWave heightAir tempDewpointWater temp
2018-May-23 03:00N 50°08' W 002°11'714.9
2018-May-23 02:30N 50°09' W 002°00'714.6
2018-May-23 02:01N 50°11' W 001°49'714.5
2018-May-23 01:31N 50°13' W 001°38'713.2
2018-May-23 01:01N 50°09' W 001°30'816.1
2018-May-23 00:30N 50°02' W 001°25'815.6
2018-May-23 00:00N 49°55' W 001°18'816.0
2018-May-22 23:31N 49°51' W 001°07'816.6
2018-May-22 23:00N 49°48' W 000°56'917.2
2018-May-22 22:30N 49°43' W 000°44'917.8
2018-May-22 22:00N 49°39' W 000°33'917.6
2018-May-22 21:31N 49°35' W 000°21'917.3
2018-May-22 21:01N 49°32' W 000°08'714.2
2018-May-22 20:31N 49°30' E 000°02'5 9.2
2018-May-22 20:01N 49°28' E 000°09'1 1.8
2018-May-22 19:31N 49°29' E 000°10'0 0.7
2018-May-22 19:01N 49°29' E 000°11'0 0.3
2018-May-22 18:28N 49°29' E 000°11'0 0.1
2018-May-22 17:58N 49°29' E 000°11'0 0.0
2018-May-22 17:28N 49°29' E 000°11'0 0.0
2018-May-22 16:58N 49°29' E 000°11'0 0.0
2018-May-22 16:28N 49°29' E 000°11'0 0.0
2018-May-22 15:58N 49°29' E 000°11'0 0.0
2018-May-22 15:28N 49°29' E 000°11'0 0.0
2018-May-22 14:58N 49°29' E 000°11'0 0.0
2018-May-22 14:28N 49°29' E 000°11'0 0.0
2018-May-22 13:58N 49°29' E 000°11'0 0.0
2018-May-22 13:28N 49°29' E 000°11'0 0.0
2018-May-22 12:58N 49°29' E 000°11'0 0.0
2018-May-22 12:28N 49°29' E 000°11'0 0.0
2018-May-22 11:58N 49°29' E 000°11'0 0.0
2018-May-22 11:28N 49°29' E 000°11'0 0.0
2018-May-22 10:58N 49°29' E 000°11'0 0.0
2018-May-22 10:28N 49°29' E 000°11'0 0.0
2018-May-22 09:58N 49°29' E 000°11'0 0.0
2018-May-22 09:28N 49°29' E 000°11'0 0.0
2018-May-22 08:58N 49°29' E 000°11'0 0.0
2018-May-22 08:28N 49°29' E 000°11'0 0.0
2018-May-22 07:58N 49°29' E 000°11'0 0.0
2018-May-22 07:28N 49°29' E 000°11'0 0.0
2018-May-22 06:58N 49°29' E 000°11'0 0.0
2018-May-22 06:28N 49°29' E 000°11'0 0.0
2018-May-22 05:58N 49°29' E 000°11'0 0.0
2018-May-22 05:28N 49°29' E 000°11'0 0.0
2018-May-22 04:58N 49°29' E 000°11'0 0.0
2018-May-22 04:28N 49°29' E 000°11'0 0.0
2018-May-22 03:58N 49°29' E 000°11'0 0.0
2018-May-22 03:28N 49°29' E 000°11'0 0.0
2018-May-22 02:58N 49°29' E 000°11'0 0.0
2018-May-22 02:28N 49°29' E 000°11'0 0.0
2018-May-22 01:58N 49°29' E 000°11'0 0.0
2018-May-22 01:28N 49°29' E 000°11'0 0.0
2018-May-22 00:58N 49°29' E 000°11'0 0.0
2018-May-22 00:28N 49°29' E 000°11'0 0.0
2018-May-22 00:01N 49°29' E 000°11'0 0.8
2018-May-21 23:30N 49°29' E 000°10'0 0.1
2018-May-21 23:01N 49°29' E 000°10'1 1.1
2018-May-21 22:31N 49°28' E 000°10'3 5.8
2018-May-21 22:00N 49°29' E 000°05'713.2
2018-May-21 21:31N 49°31' W 000°05'5 9.2
2018-May-21 21:01N 49°32' W 000°11'510.3
2018-May-21 20:31N 49°33' W 000°19'5 9.7
2018-May-21 20:00N 49°35' W 000°26'4 7.9
2018-May-21 19:30N 49°39' W 000°28'510.4
2018-May-21 19:00N 49°44' W 000°27'713.9
2018-May-21 18:30N 49°51' W 000°27'815.2
2018-May-21 18:00N 49°58' W 000°26'815.3
2018-May-21 17:30N 50°06' W 000°26'816.2
2018-May-21 17:00N 50°14' W 000°26'816.8
2018-May-21 16:31N 50°22' W 000°23'917.2
2018-May-21 16:01N 50°26' W 000°11'816.9
2018-May-21 15:31N 50°28' E 000°02'816.5
2018-May-21 15:00N 50°31' E 000°15'816.2
2018-May-21 14:31N 50°33' E 000°27'815.8
2018-May-21 14:01N 50°37' E 000°38'816.3
2018-May-21 13:31N 50°43' E 000°47'816.8
2018-May-21 13:00N 50°48' E 000°57'917.5
2018-May-21 12:29N 50°54' E 001°08'918.3
2018-May-21 12:01N 50°60' E 001°19'1019.3
2018-May-21 11:31N 51°06' E 001°31'1019.6
2018-May-21 11:01N 51°12' E 001°43'1019.1
2018-May-21 10:30N 51°19' E 001°52'816.6
2018-May-21 10:01N 51°25' E 002°02'917.2
2018-May-21 09:31N 51°21' E 002°14'816.8
2018-May-21 09:00N 51°22' E 002°27'816.7
2018-May-21 08:31N 51°22' E 002°41'714.1
2018-May-21 08:01N 51°22' E 002°52'815.5
2018-May-21 07:30N 51°24' E 003°04'815.5
2018-May-21 06:58N 51°25' E 003°18'715.4
2018-May-21 06:30N 51°25' E 003°29'510.1
2018-May-21 06:00N 51°26' E 003°37'4 8.3
2018-May-21 05:30N 51°24' E 003°43'510.2
2018-May-21 05:00N 51°21' E 003°49'4 8.9
2018-May-21 04:30N 51°22' E 003°56'5 9.0
2018-May-21 04:00N 51°26' E 003°59'4 8.8
2018-May-21 03:31N 51°23' E 004°03'4 8.5
2018-May-21 03:00N 51°23' E 004°10'4 7.2
2018-May-21 02:31N 51°21' E 004°15'4 7.1
2018-May-21 02:01N 51°18' E 004°16'1 2.6
2018-May-21 01:31N 51°17' E 004°15'0 0.0
2018-May-21 01:01N 51°17' E 004°15'0 0.3
2018-May-21 00:28N 51°17' E 004°15'1 1.8
2018-May-20 23:58N 51°17' E 004°13'0 0.0
2018-May-20 23:28N 51°17' E 004°13'0 0.0
2018-May-20 22:58N 51°17' E 004°13'0 0.0
2018-May-20 22:28N 51°17' E 004°13'0 0.0
2018-May-20 21:55N 51°17' E 004°13'0 0.0
2018-May-20 21:28N 51°17' E 004°13'0 0.0
2018-May-20 20:58N 51°17' E 004°13'0 0.0
2018-May-20 20:28N 51°17' E 004°13'0 0.0
2018-May-20 19:58N 51°17' E 004°13'0 0.0
2018-May-20 19:28N 51°17' E 004°13'0 0.0
2018-May-20 18:58N 51°17' E 004°13'0 0.0
2018-May-20 18:28N 51°17' E 004°13'0 0.0
2018-May-20 17:55N 51°17' E 004°13'0 0.0
2018-May-20 17:28N 51°17' E 004°13'0 0.0
2018-May-20 16:58N 51°17' E 004°13'0 0.0
2018-May-20 16:28N 51°17' E 004°13'0 0.0
2018-May-20 15:58N 51°17' E 004°13'0 0.0
2018-May-20 15:29N 51°17' E 004°13'0 0.0
2018-May-20 14:58N 51°17' E 004°13'0 0.0
2018-May-20 14:28N 51°17' E 004°13'0 0.0
2018-May-20 13:58N 51°17' E 004°13'0 0.0
2018-May-20 13:29N 51°17' E 004°13'0 0.0
2018-May-20 12:58N 51°17' E 004°13'0 0.0
2018-May-20 12:28N 51°17' E 004°13'0 0.0
2018-May-20 11:58N 51°17' E 004°13'0 0.0
2018-May-20 11:28N 51°17' E 004°13'0 0.0
2018-May-20 10:59N 51°17' E 004°13'0 0.0
2018-May-20 10:28N 51°17' E 004°13'0 0.0
2018-May-20 09:58N 51°17' E 004°13'0 0.0
2018-May-20 09:28N 51°17' E 004°13'0 0.0
2018-May-20 08:58N 51°17' E 004°13'0 0.0
2018-May-20 08:25N 51°17' E 004°13'0 0.0
2018-May-20 07:58N 51°17' E 004°13'0 0.0
2018-May-20 07:28N 51°17' E 004°13'0 0.0
2018-May-20 06:58N 51°17' E 004°13'0 0.0
2018-May-20 06:28N 51°17' E 004°13'0 0.0
2018-May-20 05:58N 51°17' E 004°13'0 0.0
2018-May-20 05:30N 51°17' E 004°13'0 0.0
2018-May-20 05:00N 51°17' E 004°13'0 0.0
2018-May-20 04:30N 51°17' E 004°13'0 0.0
2018-May-20 04:00N 51°17' E 004°13'0 0.0
2018-May-20 03:27N 51°17' E 004°13'0 0.0
2018-May-20 03:00N 51°17' E 004°13'0 0.0
2018-May-20 02:30N 51°17' E 004°13'0 0.0
2018-May-20 02:00N 51°17' E 004°13'0 0.0
2018-May-20 01:30N 51°17' E 004°13'0 0.0
2018-May-20 01:00N 51°17' E 004°13'0 0.0
2018-May-20 00:27N 51°17' E 004°13'0 0.0
2018-May-20 00:00N 51°17' E 004°13'0 0.0
2018-May-19 23:30N 51°17' E 004°13'0 0.0
2018-May-19 23:00N 51°17' E 004°13'0 0.0
2018-May-19 22:30N 51°17' E 004°13'0 0.0
2018-May-19 22:00N 51°17' E 004°13'0 0.0
2018-May-19 21:27N 51°17' E 004°13'0 0.0
2018-May-19 21:00N 51°17' E 004°13'0 0.0
2018-May-19 20:30N 51°17' E 004°13'0 0.0
2018-May-19 20:00N 51°17' E 004°13'0 0.0
2018-May-19 19:30N 51°17' E 004°13'0 0.0
2018-May-19 19:00N 51°17' E 004°13'0 0.0
2018-May-19 18:27N 51°17' E 004°13'0 0.0
2018-May-19 18:00N 51°17' E 004°13'0 0.0
2018-May-19 17:30N 51°17' E 004°13'0 0.0
2018-May-19 17:00N 51°17' E 004°13'0 0.0
2018-May-19 16:30N 51°17' E 004°13'0 0.0
2018-May-19 16:00N 51°17' E 004°13'0 0.0
2018-May-19 15:30N 51°17' E 004°13'0 0.0
2018-May-19 15:00N 51°17' E 004°13'0 0.0
2018-May-19 14:30N 51°17' E 004°13'0 0.0
2018-May-19 14:00N 51°17' E 004°13'0 0.0
2018-May-19 13:30N 51°17' E 004°13'0 0.0
2018-May-19 13:00N 51°17' E 004°13'0 0.0
2018-May-19 12:30N 51°17' E 004°13'0 0.0
2018-May-19 11:57N 51°17' E 004°13'0 0.0
2018-May-19 11:30N 51°17' E 004°13'0 0.0
2018-May-19 11:00N 51°17' E 004°13'0 0.0
2018-May-19 10:27N 51°17' E 004°13'0 0.0
2018-May-19 10:00N 51°17' E 004°13'0 0.0
2018-May-19 09:30N 51°17' E 004°13'0 0.0
2018-May-19 09:00N 51°17' E 004°13'0 0.0
2018-May-19 08:30N 51°17' E 004°13'0 0.0
2018-May-19 08:00N 51°17' E 004°13'0 0.0
2018-May-19 07:30N 51°17' E 004°13'0 0.0
2018-May-19 07:00N 51°17' E 004°13'0 0.0
2018-May-19 06:30N 51°17' E 004°13'0 0.0
2018-May-19 06:00N 51°17' E 004°13'0 0.0
2018-May-19 05:30N 51°17' E 004°13'0 0.0
2018-May-19 05:00N 51°17' E 004°13'0 0.0
2018-May-19 04:30N 51°17' E 004°13'0 0.0
2018-May-19 04:00N 51°17' E 004°13'0 0.0
2018-May-19 03:30N 51°17' E 004°13'0 0.0
2018-May-19 03:00N 51°17' E 004°13'0 0.0
2018-May-19 02:30N 51°17' E 004°13'0 0.0
2018-May-19 02:00N 51°17' E 004°13'0 0.0
2018-May-19 01:30N 51°17' E 004°13'0 0.0
2018-May-19 01:00N 51°17' E 004°13'0 0.0
2018-May-19 00:30N 51°17' E 004°13'0 0.0
2018-May-19 00:00N 51°17' E 004°13'0 0.0
2018-May-18 23:30N 51°17' E 004°13'0 0.0
2018-May-18 23:00N 51°17' E 004°13'0 0.0
2018-May-18 22:30N 51°17' E 004°13'0 0.0
2018-May-18 22:00N 51°17' E 004°13'0 0.0
2018-May-18 21:30N 51°17' E 004°13'0 0.0
2018-May-18 21:00N 51°17' E 004°13'0 0.0
2018-May-18 20:30N 51°17' E 004°13'0 0.0
2018-May-18 19:57N 51°17' E 004°13'0 0.0
2018-May-18 19:30N 51°17' E 004°13'0 0.0
2018-May-18 19:00N 51°17' E 004°13'0 0.0
2018-May-18 18:30N 51°17' E 004°13'0 0.0
2018-May-18 18:00N 51°17' E 004°13'0 0.0
2018-May-18 17:30N 51°17' E 004°13'0 0.0
2018-May-18 17:00N 51°17' E 004°13'0 0.0
2018-May-18 16:30N 51°17' E 004°13'0 0.0
2018-May-18 16:00N 51°17' E 004°13'0 0.0
2018-May-18 15:30N 51°17' E 004°13'0 0.0
2018-May-18 15:00N 51°17' E 004°13'0 0.0
2018-May-18 14:27N 51°17' E 004°13'0 0.0
2018-May-18 13:57N 51°17' E 004°13'0 0.0
2018-May-18 13:30N 51°17' E 004°13'0 0.0
2018-May-18 13:00N 51°17' E 004°13'0 0.0
2018-May-18 12:30N 51°17' E 004°13'0 0.0
2018-May-18 12:00N 51°17' E 004°13'0 0.0
2018-May-18 11:30N 51°17' E 004°13'0 0.0
2018-May-18 11:00N 51°17' E 004°13'0 0.0
2018-May-18 10:30N 51°17' E 004°13'0 0.0
2018-May-18 10:00N 51°17' E 004°13'0 0.0
2018-May-18 09:30N 51°17' E 004°13'0 0.0
2018-May-18 09:00N 51°17' E 004°13'0 0.0
2018-May-18 08:30N 51°17' E 004°13'0 0.0
2018-May-18 08:00N 51°17' E 004°13'0 0.0
2018-May-18 07:30N 51°17' E 004°13'0 0.0
2018-May-18 07:00N 51°17' E 004°13'0 0.0
2018-May-18 06:30N 51°17' E 004°13'0 0.0
2018-May-18 06:00N 51°17' E 004°13'0 0.0
2018-May-18 05:30N 51°17' E 004°13'0 0.0
2018-May-18 05:00N 51°17' E 004°13'0 0.0
2018-May-18 04:30N 51°17' E 004°13'0 0.0
2018-May-18 04:00N 51°17' E 004°13'0 0.0
2018-May-18 03:30N 51°17' E 004°13'0 0.0
2018-May-18 03:00N 51°17' E 004°13'0 0.0
2018-May-18 02:30N 51°17' E 004°13'0 0.0
2018-May-18 02:00N 51°17' E 004°13'0 0.0
2018-May-18 01:30N 51°17' E 004°13'0 0.0
2018-May-18 01:00N 51°17' E 004°13'0 0.0
2018-May-18 00:30N 51°17' E 004°13'0 0.0
2018-May-18 00:00N 51°17' E 004°13'0 0.0
2018-May-17 23:27N 51°17' E 004°13'0 0.0
2018-May-17 23:00N 51°17' E 004°13'0 0.0
2018-May-17 22:30N 51°17' E 004°13'0 0.0
2018-May-17 22:00N 51°17' E 004°13'0 0.0
2018-May-17 21:27N 51°17' E 004°13'0 0.0
2018-May-17 21:00N 51°17' E 004°13'0 0.0
2018-May-17 20:30N 51°17' E 004°13'0 0.0
2018-May-17 20:00N 51°17' E 004°13'0 0.0
2018-May-17 19:30N 51°17' E 004°13'0 0.0
2018-May-17 19:00N 51°17' E 004°13'0 0.0
2018-May-17 18:30N 51°17' E 004°13'0 0.0
2018-May-17 18:00N 51°17' E 004°13'0 0.0
2018-May-17 17:30N 51°17' E 004°13'0 0.0
2018-May-17 17:00N 51°17' E 004°13'0 0.0
2018-May-17 16:30N 51°17' E 004°13'0 0.0
2018-May-17 16:00N 51°17' E 004°13'0 0.0
2018-May-17 15:30N 51°17' E 004°13'0 0.0
2018-May-17 15:00N 51°17' E 004°13'0 0.0
2018-May-17 14:27N 51°17' E 004°13'0 0.0
2018-May-17 14:00N 51°17' E 004°13'0 0.0
2018-May-17 13:30N 51°17' E 004°13'0 0.0
2018-May-17 13:00N 51°17' E 004°13'0 0.0
2018-May-17 12:30N 51°17' E 004°13'0 0.0
2018-May-17 12:00N 51°17' E 004°13'0 0.0
2018-May-17 11:30N 51°17' E 004°13'0 0.0
2018-May-17 10:57N 51°17' E 004°13'0 0.0
2018-May-17 10:30N 51°17' E 004°13'0 0.0
2018-May-17 09:51N 51°17' E 004°13'0 0.0
2018-May-17 09:30N 51°17' E 004°13'0 0.0
2018-May-17 09:00N 51°17' E 004°13'0 0.0
2018-May-17 08:18N 51°17' E 004°13'0 0.0
2018-May-17 08:00N 51°17' E 004°13'0 0.0
2018-May-17 07:30N 51°17' E 004°13'0 0.0
2018-May-17 07:00N 51°17' E 004°13'0 0.0
2018-May-17 06:30N 51°17' E 004°13'0 0.0
2018-May-17 06:00N 51°17' E 004°13'0 0.1
2018-May-17 05:31N 51°17' E 004°13'2 4.3
2018-May-17 05:01N 51°16' E 004°16'0 0.3
2018-May-17 04:30N 51°16' E 004°17'0 0.6
2018-May-17 04:01N 51°16' E 004°17'2 3.8
2018-May-17 03:30N 51°18' E 004°18'4 7.6
2018-May-17 03:00N 51°21' E 004°15'4 8.5
2018-May-17 02:30N 51°23' E 004°09'510.7
2018-May-17 02:00N 51°25' E 004°02'611.9
2018-May-17 01:31N 51°22' E 003°54'713.3
2018-May-17 01:01N 51°23' E 003°44'510.9
2018-May-17 00:31N 51°26' E 003°36'4 8.5
2018-May-17 00:01N 51°25' E 003°30'714.0
2018-May-16 23:31N 51°24' E 003°19'713.1
2018-May-16 23:01N 51°24' E 003°08'612.7
2018-May-16 22:30N 51°25' E 002°58'713.3
2018-May-16 22:00N 51°25' E 002°47'510.4
2018-May-16 21:31N 51°22' E 002°40'4 7.2
2018-May-16 20:59N 51°22' E 002°34'4 8.0
2018-May-16 20:30N 51°26' E 002°32'3 4.8
2018-May-16 19:56N 51°27' E 002°37'0 0.1
2018-May-16 19:29N 51°27' E 002°37'0 0.1
2018-May-16 18:58N 51°26' E 002°37'0 0.0
2018-May-16 18:28N 51°26' E 002°37'0 0.1
2018-May-16 17:52N 51°26' E 002°37'0 0.1
2018-May-16 17:20N 51°27' E 002°37'0 0.2
2018-May-16 16:56N 51°26' E 002°37'0 0.1
2018-May-16 16:29N 51°26' E 002°37'0 0.0
2018-May-16 15:56N 51°26' E 002°37'0 0.0
2018-May-16 15:25N 51°26' E 002°37'0 0.0
2018-May-16 14:55N 51°26' E 002°37'0 0.0
2018-May-16 14:26N 51°26' E 002°37'0 0.0
2018-May-16 13:58N 51°26' E 002°37'0 0.0
2018-May-16 13:28N 51°26' E 002°37'0 0.0
2018-May-16 12:58N 51°26' E 002°37'0 0.0
2018-May-16 12:28N 51°26' E 002°37'0 0.0
2018-May-16 11:58N 51°26' E 002°37'0 0.1
2018-May-16 11:26N 51°26' E 002°37'0 0.0
2018-May-16 10:55N 51°26' E 002°37'0 0.0
2018-May-16 10:28N 51°26' E 002°37'0 0.1
2018-May-16 09:56N 51°26' E 002°37'0 0.0
2018-May-16 09:28N 51°26' E 002°37'0 0.0
2018-May-16 08:52N 51°26' E 002°37'0 0.0
2018-May-16 08:16N 51°26' E 002°37'0 0.0
2018-May-16 07:59N 51°26' E 002°37'0 0.0
2018-May-16 07:29N 51°26' E 002°37'0 0.0
2018-May-16 06:58N 51°26' E 002°37'0 0.0
2018-May-16 06:22N 51°26' E 002°37'0 0.1
2018-May-16 05:55N 51°26' E 002°37'0 0.1
2018-May-16 05:25N 51°27' E 002°37'0 0.2
2018-May-16 04:58N 51°26' E 002°37'0 0.1
2018-May-16 04:28N 51°26' E 002°37'0 0.0
2018-May-16 03:58N 51°27' E 002°37'0 0.1
2018-May-16 03:29N 51°27' E 002°37'0 0.2
2018-May-16 02:55N 51°27' E 002°37'0 0.1
2018-May-16 02:19N 51°27' E 002°37'0 0.0
2018-May-16 01:58N 51°27' E 002°37'0 0.0
2018-May-16 01:28N 51°27' E 002°37'0 0.0
2018-May-16 00:46N 51°27' E 002°37'0 0.0
2018-May-16 00:28N 51°27' E 002°37'0 0.2
2018-May-15 23:58N 51°27' E 002°37'0 0.1
2018-May-15 23:29N 51°27' E 002°37'0 0.1
2018-May-15 22:58N 51°26' E 002°37'0 0.0
2018-May-15 22:28N 51°27' E 002°37'0 0.1
2018-May-15 21:59N 51°27' E 002°37'0 0.0
2018-May-15 21:28N 51°27' E 002°37'0 0.0
2018-May-15 20:58N 51°27' E 002°37'0 0.0
2018-May-15 20:28N 51°27' E 002°37'0 0.0
2018-May-15 19:55N 51°27' E 002°37'0 0.0
2018-May-15 19:28N 51°27' E 002°37'0 0.0
2018-May-15 18:58N 51°27' E 002°37'0 0.0
2018-May-15 18:28N 51°27' E 002°37'0 0.0
2018-May-15 17:58N 51°27' E 002°37'0 0.1
2018-May-15 17:28N 51°27' E 002°37'0 0.0
2018-May-15 16:58N 51°27' E 002°37'0 0.1
2018-May-15 16:25N 51°27' E 002°37'0 0.0
2018-May-15 15:58N 51°27' E 002°37'0 0.2
2018-May-15 15:28N 51°27' E 002°37'1 2.7
2018-May-15 15:00N 51°26' E 002°35'510.1
2018-May-15 14:30N 51°22' E 002°30'816.6
2018-May-15 14:01N 51°18' E 002°18'917.6
2018-May-15 13:30N 51°13' E 002°07'917.8
2018-May-15 13:00N 51°09' E 001°54'917.6
2018-May-15 12:30N 51°04' E 001°43'917.1
2018-May-15 12:01N 50°59' E 001°33'916.8
2018-May-15 11:28N 50°51' E 001°25'918.7
2018-May-15 11:00N 50°43' E 001°22'917.5
2018-May-15 10:30N 50°37' E 001°11'917.0
2018-May-15 10:00N 50°31' E 001°01'917.2
2018-May-15 09:27N 50°27' E 000°47'817.8
2018-May-15 09:01N 50°25' E 000°35'918.4
2018-May-15 08:30N 50°22' E 000°22'918.6
2018-May-15 08:00N 50°20' E 000°07'918.3
2018-May-15 07:31N 50°19' W 000°07'918.2
2018-May-15 07:01N 50°16' W 000°20'918.4
2018-May-15 06:31N 50°14' W 000°34'918.1
2018-May-15 06:01N 50°12' W 000°48'917.9
2018-May-15 05:30N 50°10' W 001°02'917.2
2018-May-15 05:00N 50°07' W 001°15'816.4
2018-May-15 04:31N 50°05' W 001°27'815.5
2018-May-15 04:01N 50°03' W 001°38'714.6
2018-May-15 03:31N 50°01' W 001°49'713.7
2018-May-15 03:01N 49°59' W 001°60'713.2
2018-May-15 02:31N 49°57' W 002°09'613.0
2018-May-15 02:01N 49°55' W 002°19'713.0
2018-May-15 01:31N 49°53' W 002°29'713.1
2018-May-15 01:01N 49°51' W 002°38'713.4
2018-May-15 00:30N 49°49' W 002°48'713.6
2018-May-15 00:01N 49°46' W 002°58'714.2
2018-May-14 23:30N 49°43' W 003°08'714.4
2018-May-14 23:01N 49°39' W 003°17'714.8
2018-May-14 22:30N 49°36' W 003°28'714.8
2018-May-14 22:00N 49°33' W 003°38'714.8
2018-May-14 21:31N 49°29' W 003°48'815.1
2018-May-14 21:01N 49°26' W 003°58'815.2
2018-May-14 20:31N 49°22' W 004°08'815.5
2018-May-14 19:58N 49°17' W 004°19'715.4
2018-May-14 19:30N 49°14' W 004°28'815.7
2018-May-14 19:01N 49°10' W 004°39'815.7
2018-May-14 18:30N 49°06' W 004°49'816.0
2018-May-14 18:00N 49°01' W 004°59'816.5
2018-May-14 17:30N 48°57' W 005°10'816.9
2018-May-14 17:00N 48°53' W 005°21'917.3
2018-May-14 16:31N 48°48' W 005°32'916.9
2018-May-14 15:58N 48°41' W 005°41'817.2
2018-May-14 15:30N 48°34' W 005°46'917.3
2018-May-14 14:58N 48°26' W 005°53'1717.3
2018-May-14 13:59N 48°11' W 006°05'1717.3
2018-May-14 12:59N 47°56' W 006°17'  

Dump ship's entire track history